Time;durP1;ratioP1;P1;durP2;ratioP2;P2;SDS_P1;SDS_P2;PMS_P1;PMS_P2;Temp;Humidity;BMP_temperature;BMP_pressure;BME280_temperature;BME280_humidity;BME280_pressure;Samples;Min_cycle;Max_cycle;Signal;HPM_P1;HPM_P2
2023/08/22 00:00:59;;;;;;;31.75;7.03;;;;;;;;;;4998237;28;20511;-62
2023/08/22 00:03:32;;;;;;;37.78;6.80;;;;;;;;;;5001559;28;20128;-57
2023/08/22 00:06:00;;;;;;;29.38;6.50;;;;;;;;;;5001855;28;20141;-57
2023/08/22 00:08:27;;;;;;;26.17;6.28;;;;;;;;;;4997320;28;20116;-55
2023/08/22 00:11:01;;;;;;;27.48;6.88;;;;;;;;;;4997590;28;20507;-57
2023/08/22 00:13:28;;;;;;;35.05;7.82;;;;;;;;;;5002871;28;20152;-58
2023/08/22 00:16:09;;;;;;;37.97;7.07;;;;;;;;;;5002210;28;20045;-54
2023/08/22 00:18:36;;;;;;;37.38;7.18;;;;;;;;;;4999409;28;20474;-62
2023/08/22 00:21:10;;;;;;;36.50;7.50;;;;;;;;;;5001544;28;20065;-62
2023/08/22 00:23:37;;;;;;;35.00;6.55;;;;;;;;;;4999889;28;20060;-63
2023/08/22 00:26:05;;;;;;;47.85;7.05;;;;;;;;;;4997940;28;20053;-63
2023/08/22 00:28:38;;;;;;;25.08;5.97;;;;;;;;;;5000810;28;20140;-62
2023/08/22 00:31:05;;;;;;;39.83;6.50;;;;;;;;;;5000081;28;20068;-55
2023/08/22 00:33:40;;;;;;;36.67;6.60;;;;;;;;;;5004885;28;20104;-54
2023/08/22 00:36:07;;;;;;;36.30;6.40;;;;;;;;;;4999706;28;20124;-53
2023/08/22 00:38:34;;;;;;;30.92;7.60;;;;;;;;;;5000640;28;20062;-53
2023/08/22 00:41:08;;;;;;;32.10;6.53;;;;;;;;;;5001075;28;20121;-53
2023/08/22 00:43:35;;;;;;;21.50;5.55;;;;;;;;;;5002364;28;20633;-52
2023/08/22 00:46:09;;;;;;;35.95;6.82;;;;;;;;;;5000107;28;20171;-50
2023/08/22 00:48:36;;;;;;;29.30;6.38;;;;;;;;;;5003494;28;20057;-67
2023/08/22 00:51:04;;;;;;;35.97;7.60;;;;;;;;;;5003703;28;20730;-67
2023/08/22 00:53:38;;;;;;;34.30;7.00;;;;;;;;;;5003946;28;20506;-66
2023/08/22 00:56:06;;;;;;;31.55;7.18;;;;;;;;;;5004151;28;20113;-67
2023/08/22 00:58:39;;;;;;;18.63;6.13;;;;;;;;;;5008189;28;20125;-62
2023/08/22 01:01:07;;;;;;;33.10;7.03;;;;;;;;;;5002890;28;20097;-57
2023/08/22 01:03:35;;;;;;;31.88;6.30;;;;;;;;;;5003434;28;20060;-57
2023/08/22 01:06:13;;;;;;;36.00;6.30;;;;;;;;;;5000195;28;20062;-56
2023/08/22 01:08:42;;;;;;;30.00;6.38;;;;;;;;;;4983315;28;20053;-57
2023/08/22 01:11:20;;;;;;;22.48;6.50;;;;;;;;;;4985647;28;20089;-57
2023/08/22 01:14:01;;;;;;;25.15;6.82;;;;;;;;;;5004196;28;20117;-57
2023/08/22 01:16:35;;;;;;;39.15;7.38;;;;;;;;;;4988992;28;20053;-60
2023/08/22 01:19:08;;;;;;;30.48;6.03;;;;;;;;;;4983122;28;20060;-61
2023/08/22 01:21:51;;;;;;;42.33;7.30;;;;;;;;;;4988718;28;20058;-61
2023/08/22 01:24:19;;;;;;;26.48;7.57;;;;;;;;;;4989396;28;20527;-61
2023/08/22 01:26:53;;;;;;;27.60;6.32;;;;;;;;;;4982449;28;20216;-51
2023/08/22 01:29:24;;;;;;;28.45;6.60;;;;;;;;;;4981988;28;20062;-53
2023/08/22 01:32:04;;;;;;;24.90;6.65;;;;;;;;;;4987287;28;20124;-48
2023/08/22 01:34:39;;;;;;;28.25;6.72;;;;;;;;;;4985750;28;20265;-50
2023/08/22 01:37:14;;;;;;;31.52;6.97;;;;;;;;;;4984199;28;20054;-48
2023/08/22 01:39:49;;;;;;;24.13;6.88;;;;;;;;;;4982668;28;20550;-54
2023/08/22 01:42:16;;;;;;;38.55;6.88;;;;;;;;;;4983133;28;20142;-54
2023/08/22 01:44:50;;;;;;;33.47;7.13;;;;;;;;;;4980301;28;20054;-58
2023/08/22 01:47:17;;;;;;;25.75;6.30;;;;;;;;;;4984915;28;20062;-56
2023/08/22 01:49:45;;;;;;;26.90;7.07;;;;;;;;;;4984479;28;20503;-56
2023/08/22 01:52:18;;;;;;;24.98;5.90;;;;;;;;;;4983419;28;20117;-55
2023/08/22 01:54:45;;;;;;;32.80;7.18;;;;;;;;;;4984867;28;20074;-58
2023/08/22 01:57:13;;;;;;;29.55;6.93;;;;;;;;;;4981745;28;20058;-54
2023/08/22 01:59:46;;;;;;;28.23;6.38;;;;;;;;;;4978305;28;20046;-54
2023/08/22 02:02:13;;;;;;;37.22;7.30;;;;;;;;;;4981660;28;20058;-54
2023/08/22 02:04:47;;;;;;;30.48;7.22;;;;;;;;;;4987148;28;20050;-53
2023/08/22 02:07:15;;;;;;;35.45;7.35;;;;;;;;;;4984437;28;20078;-54
2023/08/22 02:09:42;;;;;;;31.40;6.88;;;;;;;;;;4980761;28;20082;-54
2023/08/22 02:12:16;;;;;;;25.85;6.45;;;;;;;;;;4986792;28;20058;-56
2023/08/22 02:14:52;;;;;;;20.63;5.07;;;;;;;;;;4992348;28;20058;-57
2023/08/22 02:17:33;;;;;;;26.55;5.82;;;;;;;;;;5000788;28;20527;-57
2023/08/22 02:20:00;;;;;;;28.55;6.75;;;;;;;;;;5003851;28;20186;-56
2023/08/22 02:22:40;;;;;;;28.25;6.40;;;;;;;;;;5001971;28;20148;-57
2023/08/22 02:25:14;;;;;;;22.95;5.68;;;;;;;;;;4999314;28;20065;-55
2023/08/22 02:27:41;;;;;;;25.10;5.85;;;;;;;;;;5000058;28;20598;-57
2023/08/22 02:30:15;;;;;;;22.52;5.43;;;;;;;;;;5000906;28;20100;-56
2023/08/22 02:32:43;;;;;;;27.05;5.68;;;;;;;;;;5000771;28;20378;-56
2023/08/22 02:35:10;;;;;;;28.83;6.05;;;;;;;;;;5005695;28;20056;-56
2023/08/22 02:37:44;;;;;;;22.48;5.47;;;;;;;;;;5000614;28;20062;-55
2023/08/22 02:40:11;;;;;;;33.13;5.72;;;;;;;;;;4999537;28;20120;-57
2023/08/22 02:42:42;;;;;;;28.98;5.53;;;;;;;;;;5002743;28;20058;-54
2023/08/22 02:45:16;;;;;;;28.27;5.80;;;;;;;;;;5004072;28;20132;-55
2023/08/22 02:47:43;;;;;;;21.15;5.22;;;;;;;;;;4998334;28;20054;-52
2023/08/22 02:50:17;;;;;;;32.58;5.80;;;;;;;;;;5003888;28;20058;-52
2023/08/22 02:52:45;;;;;;;29.13;5.63;;;;;;;;;;5000686;28;20053;-47
2023/08/22 02:55:12;;;;;;;29.38;5.65;;;;;;;;;;4999369;28;20526;-50
2023/08/22 02:57:46;;;;;;;29.63;5.53;;;;;;;;;;5000385;28;20085;-51
2023/08/22 03:00:14;;;;;;;19.60;5.70;;;;;;;;;;5001864;28;20112;-54
2023/08/22 03:02:48;;;;;;;18.95;5.75;;;;;;;;;;5000021;28;21312;-53
2023/08/22 03:05:15;;;;;;;20.98;5.50;;;;;;;;;;5005846;28;20068;-51
2023/08/22 03:07:42;;;;;;;24.23;6.30;;;;;;;;;;4997828;28;20053;-51
2023/08/22 03:10:16;;;;;;;22.70;6.07;;;;;;;;;;4997492;28;20057;-54
2023/08/22 03:12:44;;;;;;;27.50;5.55;;;;;;;;;;5001767;28;20063;-52
2023/08/22 03:15:30;;;;;;;20.75;5.68;;;;;;;;;;4998179;28;20050;-52
2023/08/22 03:18:04;;;;;;;27.23;5.80;;;;;;;;;;4999163;28;20056;-54
2023/08/22 03:20:38;;;;;;;25.13;5.78;;;;;;;;;;4998411;28;20046;-62
2023/08/22 03:23:12;;;;;;;31.10;6.70;;;;;;;;;;5002688;28;20061;-52
2023/08/22 03:25:54;;;;;;;26.08;6.38;;;;;;;;;;4994226;28;20088;-47
2023/08/22 03:28:22;;;;;;;25.60;6.03;;;;;;;;;;5001002;28;20050;-50
2023/08/22 03:30:56;;;;;;;23.75;5.85;;;;;;;;;;4998888;28;20057;-49
2023/08/22 03:33:24;;;;;;;29.65;5.93;;;;;;;;;;5000225;28;20089;-50
2023/08/22 03:35:52;;;;;;;30.33;6.65;;;;;;;;;;5003162;28;21528;-51
2023/08/22 03:38:26;;;;;;;22.08;5.80;;;;;;;;;;5002843;28;20049;-58
2023/08/22 03:40:54;;;;;;;27.20;6.43;;;;;;;;;;5002202;28;20085;-57
2023/08/22 03:43:28;;;;;;;29.38;7.10;;;;;;;;;;5001829;28;20069;-58
2023/08/22 03:45:56;;;;;;;30.60;6.30;;;;;;;;;;4983009;28;20057;-57
2023/08/22 03:48:23;;;;;;;28.30;7.10;;;;;;;;;;5001628;28;20140;-53
2023/08/22 03:50:56;;;;;;;24.67;6.65;;;;;;;;;;5002661;28;20449;-66
2023/08/22 03:53:23;;;;;;;38.40;7.32;;;;;;;;;;5004371;28;20117;-65
2023/08/22 03:55:51;;;;;;;29.05;6.80;;;;;;;;;;4999156;28;20209;-65
2023/08/22 03:58:24;;;;;;;33.47;7.28;;;;;;;;;;4997592;28;20081;-65
2023/08/22 04:00:54;;;;;;;31.42;6.78;;;;;;;;;;4996345;28;20077;-65
2023/08/22 04:03:21;;;;;;;33.75;6.72;;;;;;;;;;5000658;28;20057;-65
2023/08/22 04:05:58;;;;;;;19.30;6.18;;;;;;;;;;5003640;28;20843;-57
2023/08/22 04:08:25;;;;;;;24.35;7.30;;;;;;;;;;5002183;28;20081;-58
2023/08/22 04:10:58;;;;;;;29.40;8.10;;;;;;;;;;5002118;28;20058;-57
2023/08/22 04:13:25;;;;;;;30.40;8.23;;;;;;;;;;5005462;28;20876;-55
2023/08/22 04:16:06;;;;;;;27.73;7.72;;;;;;;;;;4999046;28;20132;-55
2023/08/22 04:18:33;;;;;;;31.20;8.15;;;;;;;;;;5002296;28;20349;-55
2023/08/22 04:21:07;;;;;;;33.33;8.27;;;;;;;;;;5005043;28;20602;-60
2023/08/22 04:23:34;;;;;;;32.63;8.13;;;;;;;;;;5003839;28;20117;-61
2023/08/22 04:26:02;;;;;;;31.80;8.13;;;;;;;;;;5001586;28;20439;-59
2023/08/22 04:28:37;;;;;;;29.33;8.95;;;;;;;;;;5001669;28;20442;-61
2023/08/22 04:31:04;;;;;;;29.50;9.05;;;;;;;;;;5003787;28;20053;-60
2023/08/22 04:33:38;;;;;;;42.13;10.50;;;;;;;;;;5002197;28;20053;-59
2023/08/22 04:36:06;;;;;;;36.17;10.00;;;;;;;;;;5006678;28;20605;-60
2023/08/22 04:38:33;;;;;;;36.95;11.00;;;;;;;;;;5008658;28;20057;-59
2023/08/22 04:41:07;;;;;;;38.05;10.02;;;;;;;;;;5002124;28;20141;-60
2023/08/22 04:43:34;;;;;;;30.63;11.02;;;;;;;;;;5003539;28;20510;-60
2023/08/22 04:46:08;;;;;;;44.85;10.77;;;;;;;;;;5001396;28;20127;-60
2023/08/22 04:48:35;;;;;;;43.15;12.65;;;;;;;;;;4996310;28;20723;-57
2023/08/22 04:51:04;;;;;;;38.85;11.52;;;;;;;;;;5000676;28;20061;-55
2023/08/22 04:53:37;;;;;;;37.42;12.18;;;;;;;;;;5004490;28;20089;-55
2023/08/22 04:56:05;;;;;;;41.08;12.02;;;;;;;;;;5000205;28;20462;-56
2023/08/22 04:58:38;;;;;;;46.70;13.88;;;;;;;;;;5002950;28;20108;-55
2023/08/22 05:01:06;;;;;;;27.88;10.52;;;;;;;;;;5002712;28;20497;-59
2023/08/22 05:03:33;;;;;;;39.78;12.18;;;;;;;;;;5001739;28;20054;-61
2023/08/22 05:06:06;;;;;;;51.83;15.15;;;;;;;;;;5002949;28;20064;-61
2023/08/22 05:08:34;;;;;;;49.67;13.98;;;;;;;;;;5003617;28;20113;-62
2023/08/22 05:11:07;;;;;;;49.78;15.32;;;;;;;;;;5004498;28;20058;-61
2023/08/22 05:13:34;;;;;;;42.25;14.02;;;;;;;;;;5000992;28;20112;-57
2023/08/22 05:16:15;;;;;;;48.08;15.98;;;;;;;;;;5001562;28;20093;-57
2023/08/22 05:18:49;;;;;;;43.53;15.93;;;;;;;;;;4998898;28;20515;-55
2023/08/22 05:21:22;;;;;;;42.83;14.77;;;;;;;;;;5004381;28;20528;-57
2023/08/22 05:23:49;;;;;;;49.30;16.20;;;;;;;;;;5000015;28;20111;-55
2023/08/22 05:26:17;;;;;;;51.88;17.38;;;;;;;;;;4989795;28;20054;-56
2023/08/22 05:28:52;;;;;;;43.28;15.45;;;;;;;;;;4996036;28;20046;-57
2023/08/22 05:31:24;;;;;;;47.75;17.13;;;;;;;;;;4998596;28;20116;-56
2023/08/22 05:33:57;;;;;;;45.88;16.02;;;;;;;;;;4996656;28;20057;-57
2023/08/22 05:36:25;;;;;;;54.28;16.52;;;;;;;;;;4999100;28;20077;-58
2023/08/22 05:38:52;;;;;;;42.75;14.65;;;;;;;;;;5007890;28;20317;-57
2023/08/22 05:41:25;;;;;;;37.53;13.85;;;;;;;;;;5007468;28;20517;-53
2023/08/22 05:43:52;;;;;;;33.47;12.52;;;;;;;;;;5003862;28;20101;-53
2023/08/22 05:46:26;;;;;;;33.50;12.85;;;;;;;;;;5003180;28;20074;-65
2023/08/22 05:48:53;;;;;;;40.15;14.40;;;;;;;;;;4999849;28;20050;-66
2023/08/22 05:51:22;;;;;;;35.38;12.05;;;;;;;;;;5006892;28;20527;-66
2023/08/22 05:53:56;;;;;;;35.25;13.13;;;;;;;;;;5006414;28;20069;-66
2023/08/22 05:56:23;;;;;;;32.47;12.30;;;;;;;;;;5004743;28;20108;-66
2023/08/22 05:58:57;;;;;;;38.10;13.25;;;;;;;;;;5003006;28;20706;-65
2023/08/22 06:01:25;;;;;;;43.72;13.15;;;;;;;;;;5003215;28;20550;-50
2023/08/22 06:03:52;;;;;;;28.65;12.07;;;;;;;;;;5003465;28;20056;-49
2023/08/22 06:06:26;;;;;;;34.92;12.90;;;;;;;;;;5002603;28;20062;-52
2023/08/22 06:08:53;;;;;;;27.15;12.35;;;;;;;;;;5002154;28;20247;-49
2023/08/22 06:11:27;;;;;;;35.60;13.07;;;;;;;;;;5009466;28;20132;-60
2023/08/22 06:13:58;;;;;;;34.63;12.63;;;;;;;;;;5003313;28;20061;-60
2023/08/22 06:16:39;;;;;;;30.77;11.38;;;;;;;;;;5004061;28;20087;-60
2023/08/22 06:19:07;;;;;;;29.98;11.98;;;;;;;;;;5001258;28;20313;-60
2023/08/22 06:21:40;;;;;;;23.88;10.13;;;;;;;;;;5001950;28;20052;-60
2023/08/22 06:24:07;;;;;;;26.17;11.07;;;;;;;;;;5003394;28;20058;-60
2023/08/22 06:26:42;;;;;;;25.40;10.75;;;;;;;;;;5005946;28;20058;-60
2023/08/22 06:29:09;;;;;;;;;;;;;;;;;;5002740;28;20108;-58
2023/08/22 06:31:36;;;;;;;30.52;9.43;;;;;;;;;;5000013;28;20004;-58
2023/08/22 06:34:10;;;;;;;23.95;8.13;;;;;;;;;;5001665;28;20050;-58
2023/08/22 06:36:38;;;;;;;23.17;9.38;;;;;;;;;;5000373;28;20124;-58
2023/08/22 06:39:11;;;;;;;26.45;9.27;;;;;;;;;;5001147;28;20120;-65
2023/08/22 06:41:38;;;;;;;21.27;9.70;;;;;;;;;;5005869;28;20112;-52
2023/08/22 06:44:09;;;;;;;28.35;8.93;;;;;;;;;;5003529;28;20062;-53
2023/08/22 06:46:43;;;;;;;27.13;8.32;;;;;;;;;;5001123;28;20116;-53
2023/08/22 06:49:10;;;;;;;21.42;8.40;;;;;;;;;;5002365;28;20070;-54
2023/08/22 06:51:43;;;;;;;23.90;9.00;;;;;;;;;;5000521;28;20566;-51
2023/08/22 06:54:10;;;;;;;26.20;8.05;;;;;;;;;;5002215;28;20578;-54
2023/08/22 06:56:38;;;;;;;24.88;8.73;;;;;;;;;;5002954;28;20097;-66
2023/08/22 06:59:12;;;;;;;29.05;8.57;;;;;;;;;;5001100;28;20187;-66
2023/08/22 07:01:39;;;;;;;24.55;7.28;;;;;;;;;;5004899;28;20486;-65
2023/08/22 07:04:13;;;;;;;24.83;7.70;;;;;;;;;;5002542;28;20045;-65
2023/08/22 07:06:43;;;;;;;20.92;6.90;;;;;;;;;;4999050;28;20541;-53
2023/08/22 07:09:17;;;;;;;20.15;7.72;;;;;;;;;;5000695;28;20057;-53
2023/08/22 07:11:44;;;;;;;18.90;6.00;;;;;;;;;;5002622;28;20053;-60
2023/08/22 07:14:12;;;;;;;22.52;5.82;;;;;;;;;;5001706;28;20054;-60
2023/08/22 07:16:52;;;;;;;19.00;5.20;;;;;;;;;;5001794;28;20624;-61
2023/08/22 07:19:19;;;;;;;15.38;4.97;;;;;;;;;;5001103;28;20104;-61
2023/08/22 07:22:07;;;;;;;19.83;5.23;;;;;;;;;;5003930;28;20045;-61
2023/08/22 07:24:34;;;;;;;15.70;5.72;;;;;;;;;;5001006;28;20300;-61
2023/08/22 07:27:12;;;;;;;;;;;;;;;;;;5004944;28;20054;-52
2023/08/22 07:29:40;;;;;;;21.10;5.45;;;;;;;;;;5002687;28;19921;-52
2023/08/22 07:32:08;;;;;;;12.10;4.30;;;;;;;;;;5000396;28;20147;-51
2023/08/22 07:34:42;;;;;;;14.93;4.60;;;;;;;;;;4999758;28;20120;-51
2023/08/22 07:37:09;;;;;;;16.40;4.57;;;;;;;;;;5000310;28;20490;-58
2023/08/22 07:39:43;;;;;;;12.80;4.60;;;;;;;;;;5002647;28;20053;-58
2023/08/22 07:42:10;;;;;;;9.95;4.32;;;;;;;;;;5002442;28;20519;-56
2023/08/22 07:44:38;;;;;;;14.48;4.47;;;;;;;;;;5003475;28;20495;-59
2023/08/22 07:47:11;;;;;;;12.50;4.20;;;;;;;;;;5002099;28;20054;-56
2023/08/22 07:49:38;;;;;;;14.02;3.90;;;;;;;;;;4999409;28;20531;-58
2023/08/22 07:52:06;;;;;;;11.57;3.08;;;;;;;;;;4999459;28;20065;-58
2023/08/22 07:54:39;;;;;;;11.70;4.07;;;;;;;;;;5004627;28;20792;-66
2023/08/22 07:57:06;;;;;;;12.23;3.63;;;;;;;;;;5002694;28;20085;-66
2023/08/22 07:59:45;;;;;;;10.45;3.40;;;;;;;;;;5007026;28;20050;-66
2023/08/22 08:02:13;;;;;;;16.35;3.83;;;;;;;;;;4999085;28;20250;-66
2023/08/22 08:04:40;;;;;;;12.38;3.28;;;;;;;;;;4997588;28;20141;-65
2023/08/22 08:07:14;;;;;;;12.25;3.90;;;;;;;;;;5000156;28;20112;-52
2023/08/22 08:09:41;;;;;;;9.35;3.10;;;;;;;;;;5004133;28;20591;-55
2023/08/22 08:12:15;;;;;;;16.00;3.85;;;;;;;;;;5002355;28;20511;-53
2023/08/22 08:14:42;;;;;;;12.73;3.28;;;;;;;;;;5003319;28;20062;-49
2023/08/22 08:17:23;;;;;;;10.45;3.13;;;;;;;;;;5001663;28;20503;-54
2023/08/22 08:19:50;;;;;;;9.90;3.50;;;;;;;;;;4999470;28;20046;-55
2023/08/22 08:22:24;;;;;;;11.65;3.90;;;;;;;;;;5001227;28;20526;-55
2023/08/22 08:24:52;;;;;;;10.25;3.08;;;;;;;;;;4997743;28;20050;-55
2023/08/22 08:27:20;;;;;;;;;;;;;;;;;;5000718;28;20490;-55
2023/08/22 08:29:55;;;;;;;11.02;3.00;;;;;;;;;;5003253;28;20238;-53
2023/08/22 08:32:22;;;;;;;13.32;3.58;;;;;;;;;;4999578;28;20065;-66
2023/08/22 08:34:57;;;;;;;8.18;2.90;;;;;;;;;;4999461;28;20053;-59
2023/08/22 08:37:24;;;;;;;11.60;3.30;;;;;;;;;;5001324;28;20166;-58
2023/08/22 08:39:51;;;;;;;9.60;3.20;;;;;;;;;;5001016;28;20152;-58
2023/08/22 08:42:24;;;;;;;15.90;3.25;;;;;;;;;;5002047;28;20108;-58
2023/08/22 08:44:52;;;;;;;;;;;;;;;;;;5002789;28;20073;-56
2023/08/22 08:47:25;;;;;;;12.45;3.38;;;;;;;;;;5001604;28;20377;-59
2023/08/22 08:49:54;;;;;;;15.43;3.88;;;;;;;;;;4998083;28;20077;-59
2023/08/22 08:52:21;;;;;;;11.90;3.80;;;;;;;;;;5000488;28;20069;-59
2023/08/22 08:54:56;;;;;;;13.05;3.47;;;;;;;;;;5001611;28;20081;-59
2023/08/22 08:57:23;;;;;;;8.68;2.83;;;;;;;;;;5004212;28;20054;-59
2023/08/22 08:59:58;;;;;;;12.77;3.65;;;;;;;;;;5006041;28;20065;-59
2023/08/22 09:02:25;;;;;;;13.77;3.10;;;;;;;;;;4996739;28;20050;-59
2023/08/22 09:04:52;;;;;;;10.23;2.95;;;;;;;;;;4997810;28;20073;-55
2023/08/22 09:07:26;;;;;;;10.70;3.25;;;;;;;;;;5004159;28;20053;-55
2023/08/22 09:09:53;;;;;;;;;;;;;;;;;;5003341;28;20078;-49
2023/08/22 09:12:32;;;;;;;10.75;3.13;;;;;;;;;;5005873;28;19925;-54
2023/08/22 09:15:00;;;;;;;10.68;2.60;;;;;;;;;;4991843;28;20046;-54
2023/08/22 09:17:41;;;;;;;13.80;2.80;;;;;;;;;;5002937;28;20061;-55
2023/08/22 09:20:10;;;;;;;10.00;2.55;;;;;;;;;;5007334;28;20060;-62
2023/08/22 09:22:43;;;;;;;9.90;2.92;;;;;;;;;;5003861;28;20132;-62
2023/08/22 09:25:11;;;;;;;11.43;3.03;;;;;;;;;;5006510;28;20053;-62
2023/08/22 09:27:38;;;;;;;8.77;2.65;;;;;;;;;;5001228;28;20061;-62
2023/08/22 09:30:14;;;;;;;7.97;2.70;;;;;;;;;;5008027;28;20061;-59
2023/08/22 09:32:41;;;;;;;11.60;3.05;;;;;;;;;;5002667;28;20085;-59
2023/08/22 09:35:18;;;;;;;11.25;2.80;;;;;;;;;;5001666;28;20042;-59
2023/08/22 09:37:45;;;;;;;11.10;2.90;;;;;;;;;;5003065;28;20117;-59
2023/08/22 09:40:16;;;;;;;14.07;3.83;;;;;;;;;;5006363;28;20458;-59
2023/08/22 09:42:51;;;;;;;14.77;3.80;;;;;;;;;;5002604;28;20420;-59
2023/08/22 09:45:18;;;;;;;17.00;3.08;;;;;;;;;;4988004;28;20157;-59
2023/08/22 09:47:55;;;;;;;14.85;3.50;;;;;;;;;;5003881;28;20053;-66
2023/08/22 09:50:24;;;;;;;11.07;2.97;;;;;;;;;;5003113;28;20054;-66
2023/08/22 09:52:52;;;;;;;11.48;2.92;;;;;;;;;;5000025;28;20057;-66
2023/08/22 09:55:27;;;;;;;14.40;3.22;;;;;;;;;;5001353;28;20523;-66
2023/08/22 09:57:54;;;;;;;12.23;3.15;;;;;;;;;;4999638;28;20065;-59
2023/08/22 10:00:30;;;;;;;13.18;3.55;;;;;;;;;;5005746;28;20061;-60
2023/08/22 10:02:57;;;;;;;7.65;3.00;;;;;;;;;;5003317;28;20894;-59
2023/08/22 10:05:25;;;;;;;12.02;3.35;;;;;;;;;;5004698;28;20487;-59
2023/08/22 10:07:59;;;;;;;13.25;3.13;;;;;;;;;;5000764;28;20057;-59
2023/08/22 10:10:27;;;;;;;11.45;3.08;;;;;;;;;;5002381;28;20485;-59
2023/08/22 10:13:03;;;;;;;7.85;2.53;;;;;;;;;;5000459;28;20113;-59
2023/08/22 10:15:35;;;;;;;10.60;2.90;;;;;;;;;;5006630;28;20062;-61
2023/08/22 10:18:08;;;;;;;10.10;2.97;;;;;;;;;;4988421;28;20142;-59
2023/08/22 10:20:36;;;;;;;;;;;;;;;;;;4998271;28;20499;-59
2023/08/22 10:23:09;;;;;;;11.07;2.67;;;;;;;;;;5000233;28;20090;-59
2023/08/22 10:25:47;;;;;;;8.02;2.55;;;;;;;;;;5005028;28;20108;-54
2023/08/22 10:28:28;;;;;;;10.32;3.33;;;;;;;;;;4999302;28;20113;-65
2023/08/22 10:31:03;;;;;;;11.73;3.03;;;;;;;;;;5002451;28;20085;-66
2023/08/22 10:33:37;;;;;;;8.25;3.05;;;;;;;;;;5003365;28;20447;-65
2023/08/22 10:36:13;;;;;;;12.45;2.60;;;;;;;;;;5004146;28;20522;-65
2023/08/22 10:38:48;;;;;;;6.63;2.53;;;;;;;;;;5003980;28;20061;-65
2023/08/22 10:41:15;;;;;;;11.20;2.60;;;;;;;;;;5000109;28;20597;-65
2023/08/22 10:43:42;;;;;;;7.72;2.33;;;;;;;;;;5002234;28;20498;-65
2023/08/22 10:46:16;;;;;;;10.57;2.40;;;;;;;;;;4998926;28;20085;-60
2023/08/22 10:48:45;;;;;;;12.23;2.08;;;;;;;;;;5004799;28;20064;-60
2023/08/22 10:51:19;;;;;;;16.33;2.40;;;;;;;;;;5005860;28;20053;-59
2023/08/22 10:53:46;;;;;;;7.57;2.10;;;;;;;;;;5001557;28;20136;-59
2023/08/22 10:56:14;;;;;;;;;;;;;;;;;;5001228;28;20080;-62
2023/08/22 10:58:57;;;;;;;6.57;2.03;;;;;;;;;;5001230;28;19932;-56
2023/08/22 11:01:24;;;;;;;12.68;2.42;;;;;;;;;;5000448;28;20058;-54
2023/08/22 11:03:59;;;;;;;13.70;2.60;;;;;;;;;;5002493;28;20054;-50
2023/08/22 11:06:26;;;;;;;7.38;1.80;;;;;;;;;;5007268;28;20046;-52
2023/08/22 11:08:54;;;;;;;6.70;2.20;;;;;;;;;;5001219;28;20116;-53
2023/08/22 11:11:27;;;;;;;8.93;2.33;;;;;;;;;;5000103;28;20209;-53
2023/08/22 11:13:54;;;;;;;;;;;;;;;;;;5000970;28;20053;-60
2023/08/22 11:16:35;;;;;;;9.23;2.35;;;;;;;;;;5000436;28;20043;-60
2023/08/22 11:19:09;;;;;;;14.57;2.83;;;;;;;;;;4998878;28;20049;-60
2023/08/22 11:21:42;;;;;;;8.52;2.55;;;;;;;;;;5005237;28;20496;-60
2023/08/22 11:24:11;;;;;;;7.88;2.10;;;;;;;;;;5002158;28;20049;-59
2023/08/22 11:26:38;;;;;;;12.13;2.67;;;;;;;;;;4999117;28;20062;-62
2023/08/22 11:29:12;;;;;;;8.00;2.17;;;;;;;;;;4998307;28;20535;-62
2023/08/22 11:31:40;;;;;;;8.40;2.58;;;;;;;;;;4999859;28;20053;-62
2023/08/22 11:34:08;;;;;;;9.55;2.10;;;;;;;;;;5000056;28;20195;-62
2023/08/22 11:36:44;;;;;;;8.05;2.50;;;;;;;;;;5004122;28;20140;-62
2023/08/22 11:39:11;;;;;;;6.78;2.45;;;;;;;;;;5001255;28;20100;-62
2023/08/22 11:41:45;;;;;;;11.25;2.45;;;;;;;;;;4995534;28;20069;-65
2023/08/22 11:44:13;;;;;;;7.13;2.25;;;;;;;;;;5000803;28;20049;-65
2023/08/22 11:46:41;;;;;;;11.65;2.45;;;;;;;;;;5000528;28;20053;-66
2023/08/22 11:49:14;;;;;;;9.38;2.30;;;;;;;;;;5001088;28;20064;-64
2023/08/22 11:51:43;;;;;;;7.30;2.03;;;;;;;;;;5004786;28;20050;-60
2023/08/22 11:54:27;;;;;;;7.45;2.20;;;;;;;;;;5002347;28;20593;-58
2023/08/22 11:57:00;;;;;;;6.72;2.05;;;;;;;;;;4998109;28;20057;-59
2023/08/22 11:59:33;;;;;;;8.07;1.85;;;;;;;;;;5001645;28;20077;-60
2023/08/22 12:02:09;;;;;;;8.15;2.00;;;;;;;;;;4998213;28;20053;-60
2023/08/22 12:04:43;;;;;;;6.15;1.92;;;;;;;;;;5000831;28;20045;-60
2023/08/22 12:07:16;;;;;;;5.60;1.95;;;;;;;;;;5002905;28;20597;-58
2023/08/22 12:09:57;;;;;;;6.65;1.85;;;;;;;;;;5005739;28;20049;-59
2023/08/22 12:12:31;;;;;;;8.05;2.60;;;;;;;;;;5004294;28;20598;-59
2023/08/22 12:14:59;;;;;;;8.52;2.20;;;;;;;;;;5001522;28;20264;-59
2023/08/22 12:17:33;;;;;;;5.97;2.15;;;;;;;;;;4999433;28;20053;-59
2023/08/22 12:20:08;;;;;;;8.63;2.10;;;;;;;;;;5000698;28;20054;-55
2023/08/22 12:22:35;;;;;;;7.13;2.05;;;;;;;;;;4998088;28;20490;-55
2023/08/22 12:25:11;;;;;;;6.15;2.22;;;;;;;;;;4999327;28;20042;-66
2023/08/22 12:27:39;;;;;;;10.57;2.33;;;;;;;;;;5004129;28;20058;-65
2023/08/22 12:30:08;;;;;;;8.10;2.22;;;;;;;;;;4998435;28;20050;-66
2023/08/22 12:32:44;;;;;;;11.82;2.17;;;;;;;;;;5000761;28;20140;-65
2023/08/22 12:35:12;;;;;;;6.28;1.75;;;;;;;;;;5001618;28;20045;-65
2023/08/22 12:37:48;;;;;;;4.60;2.03;;;;;;;;;;4996077;28;20647;-54
2023/08/22 12:40:15;;;;;;;8.30;2.22;;;;;;;;;;4993953;28;20431;-65
2023/08/22 12:42:43;;;;;;;7.50;1.88;;;;;;;;;;5008001;28;20127;-65
2023/08/22 12:45:16;;;;;;;9.05;2.50;;;;;;;;;;5003112;28;20061;-66
2023/08/22 12:47:43;;;;;;;8.02;2.05;;;;;;;;;;5003776;28;20108;-66
2023/08/22 12:50:18;;;;;;;6.82;1.85;;;;;;;;;;5003044;28;20128;-59
2023/08/22 12:52:45;;;;;;;;;;;;;;;;;;4999542;28;20054;-63
2023/08/22 12:55:13;;;;;;;9.30;1.85;;;;;;;;;;5004023;28;19921;-63
2023/08/22 12:57:46;;;;;;;10.45;1.98;;;;;;;;;;5010148;28;20537;-63
2023/08/22 13:00:14;;;;;;;7.53;2.00;;;;;;;;;;5002556;28;20053;-62
2023/08/22 13:02:41;;;;;;;9.40;2.28;;;;;;;;;;5003263;28;20064;-63
2023/08/22 13:05:16;;;;;;;12.73;2.15;;;;;;;;;;5004945;28;20511;-63
2023/08/22 13:07:43;;;;;;;;;;;;;;;;;;5002920;28;20511;-63
2023/08/22 13:10:18;;;;;;;6.65;2.38;;;;;;;;;;5005276;28;19965;-63
2023/08/22 13:12:45;;;;;;;8.93;2.42;;;;;;;;;;5006250;28;20058;-63
2023/08/22 13:15:13;;;;;;;9.60;2.05;;;;;;;;;;5004494;28;20120;-62
2023/08/22 13:17:53;;;;;;;9.27;2.13;;;;;;;;;;4981299;28;20116;-59
2023/08/22 13:20:22;;;;;;;6.78;2.35;;;;;;;;;;4981200;28;20050;-50
2023/08/22 13:22:56;;;;;;;8.90;2.20;;;;;;;;;;4978572;28;20042;-51
2023/08/22 13:25:23;;;;;;;7.30;2.60;;;;;;;;;;4977805;28;20117;-49
2023/08/22 13:27:50;;;;;;;7.50;2.05;;;;;;;;;;4983593;28;20289;-51
2023/08/22 13:30:26;;;;;;;12.23;2.33;;;;;;;;;;4979922;28;20543;-50
2023/08/22 13:32:53;;;;;;;10.95;2.20;;;;;;;;;;4979195;28;20542;-54
2023/08/22 13:35:20;;;;;;;10.70;2.20;;;;;;;;;;4981059;28;20149;-63
2023/08/22 13:37:54;;;;;;;11.75;2.70;;;;;;;;;;4978584;28;20054;-63
2023/08/22 13:40:22;;;;;;;7.80;2.33;;;;;;;;;;4979218;28;20130;-64
2023/08/22 13:42:56;;;;;;;9.38;2.25;;;;;;;;;;4981321;28;20061;-64
2023/08/22 13:45:23;;;;;;;10.13;2.30;;;;;;;;;;4979235;28;20538;-59
2023/08/22 13:47:54;;;;;;;6.80;2.10;;;;;;;;;;4978077;28;20058;-66
2023/08/22 13:50:31;;;;;;;7.45;2.22;;;;;;;;;;4981242;28;20061;-59
2023/08/22 13:52:58;;;;;;;9.50;2.10;;;;;;;;;;4973331;28;20124;-58
2023/08/22 13:55:33;;;;;;;5.47;1.77;;;;;;;;;;4977987;28;20059;-59
2023/08/22 13:58:01;;;;;;;8.35;2.25;;;;;;;;;;4983906;28;20046;-59
2023/08/22 14:00:28;;;;;;;9.13;2.13;;;;;;;;;;4981873;28;20062;-59
2023/08/22 14:03:03;;;;;;;9.80;2.40;;;;;;;;;;4961502;28;20542;-59
2023/08/22 14:05:30;;;;;;;8.00;2.28;;;;;;;;;;4963700;28;20708;-61
2023/08/22 14:08:05;;;;;;;6.47;1.73;;;;;;;;;;4977061;28;20046;-61
2023/08/22 14:10:32;;;;;;;12.88;2.45;;;;;;;;;;4977992;28;20058;-61
2023/08/22 14:13:01;;;;;;;8.88;2.30;;;;;;;;;;4980940;28;20058;-61
2023/08/22 14:15:41;;;;;;;10.90;2.17;;;;;;;;;;4979168;28;20058;-60
2023/08/22 14:18:15;;;;;;;8.43;2.33;;;;;;;;;;4999861;28;20641;-54
2023/08/22 14:20:48;;;;;;;5.30;2.28;;;;;;;;;;4996890;28;20052;-55
2023/08/22 14:23:16;;;;;;;11.07;2.28;;;;;;;;;;5006241;28;20434;-53
2023/08/22 14:25:45;;;;;;;8.20;2.58;;;;;;;;;;5004665;28;20108;-56
2023/08/22 14:28:18;;;;;;;15.02;2.88;;;;;;;;;;5002231;28;20081;-56
2023/08/22 14:30:46;;;;;;;;;;;;;;;;;;5005570;28;20113;-54
2023/08/22 14:33:20;;;;;;;6.38;1.88;;;;;;;;;;5002996;28;19929;-56
2023/08/22 14:35:47;;;;;;;9.57;2.10;;;;;;;;;;5001724;28;20049;-53
2023/08/22 14:38:14;;;;;;;8.82;2.25;;;;;;;;;;4999771;28;20073;-52
2023/08/22 14:40:57;;;;;;;8.73;2.30;;;;;;;;;;4998630;28;20811;-55
2023/08/22 14:43:27;;;;;;;10.35;2.15;;;;;;;;;;5003029;28;20113;-59
2023/08/22 14:46:05;;;;;;;9.60;2.08;;;;;;;;;;5003244;28;20058;-54
2023/08/22 14:48:32;;;;;;;7.05;2.30;;;;;;;;;;4996980;28;20537;-55
2023/08/22 14:50:59;;;;;;;;;;;;;;;;;;4997592;28;20049;-54
2023/08/22 14:53:32;;;;;;;11.82;2.40;;;;;;;;;;4998578;28;19988;-54
2023/08/22 14:56:01;;;;;;;10.05;2.78;;;;;;;;;;5002858;28;20254;-53
2023/08/22 14:58:44;;;;;;;6.78;2.17;;;;;;;;;;5000884;28;20108;-54